Portada
METAR-TAF:

METAR-TAF

Aeroports :

Maurici, Maurici

latitud: 20-26S, longitud: 057-40E, altitud: 55 m

Observació

L'informe es va fer fa 32 minuts, a les 21:00 UTC
Vent 8 kt del Est
Temperatura 23°C
Humitat 78%
Pressió 1021 hPa
Visibilitat 10 km o més
Escasses núvols a una alçada de 1700 ft

METAR: FIMP 262100Z 10008KT 9999 FEW017 23/19 Q1021

Hora: 01:32 (21:32 UTC)

Pronòstic

L'informe es va fer fa 4 hores i 32 minuts, a les 17:00 UTC
Pronòstic vàlid del 26 a les 18 UTC al 28 a les 00 UTC
Vent 10 kt del Est
Visibilitat 10 km o més
Escasses núvols a una alçada de 1800 ft
Probabilitat 30% :
Temporalment
l' 27 a les 10 UTC al 28 a les 00 UTC
Visibilitat: 7000 m
Escasses núvols a una alçada de 1000 ft
Núvols disperses a una alçada de 1500 ft
Cel ennuvolat a una alçada de 5000 ft
xàfecs de pluja

TAF: FIMP 261700Z 2618/2800 10010KT 9999 FEW018 PROB30 TEMPO 2710/2800 7000 -SHRA FEW010 SCT015 BKN050

Observacions i pronòstics meteorològics de més de 4000 aeroports (METAR i TAF).

Les estacions disponibles són els punts grocs i vermells al mapa.

Posi el ratolí al punt desitjat per veure el nom de l'estació.

Feu clic per veure les observacions i els pronòstics meteorològics.

Per canviar el mapa: feu clic els botons verds amb una creu de color negre per apropar; al botó verd amb un guió per allunyar la imatge; o en les fletxes verdes per a mapes adjacents.


METAR-TAF: